createdAt,value
2023-04-04T00:01:07.008Z,101414.00
2023-04-04T00:03:34.054Z,101417.00
2023-04-04T00:06:01.282Z,101411.00
2023-04-04T00:08:28.215Z,101414.00
2023-04-04T00:11:00.049Z,101410.00
2023-04-04T00:13:27.667Z,101402.00
2023-04-04T00:15:55.890Z,101402.00
2023-04-04T00:18:22.809Z,101401.00
2023-04-04T00:20:49.732Z,101396.00
2023-04-04T00:23:16.522Z,101381.00
2023-04-04T00:25:44.179Z,101399.00
2023-04-04T00:28:11.061Z,101396.00
2023-04-04T00:30:38.124Z,101379.00
2023-04-04T00:33:06.425Z,101388.00
2023-04-04T00:35:33.517Z,101375.00
2023-04-04T00:38:00.533Z,101382.00
2023-04-04T00:40:27.693Z,101384.00
2023-04-04T00:42:54.773Z,101378.00
2023-04-04T00:45:21.778Z,101375.00
2023-04-04T00:47:49.685Z,101375.00
2023-04-04T00:50:17.758Z,101366.00
2023-04-04T00:52:44.702Z,101370.00
2023-04-04T00:55:11.956Z,101364.00
2023-04-04T00:57:39.061Z,101368.00
2023-04-04T01:00:07.062Z,101360.00
2023-04-04T01:02:33.976Z,101361.00
2023-04-04T01:05:02.486Z,101359.00
2023-04-04T01:07:29.346Z,101352.00
2023-04-04T01:09:58.118Z,101346.00
2023-04-04T01:12:25.796Z,101362.00
2023-04-04T01:14:52.592Z,101344.00
2023-04-04T01:17:20.734Z,101346.00
2023-04-04T01:20:03.932Z,101345.00
2023-04-04T01:22:31.812Z,101348.00
2023-04-04T01:25:01.541Z,101347.00
2023-04-04T01:27:28.419Z,101342.00
2023-04-04T01:29:55.515Z,101342.00
2023-04-04T01:32:45.816Z,101338.00
2023-04-04T01:35:46.972Z,101343.00
2023-04-04T01:38:58.453Z,101336.00
2023-04-04T01:41:27.443Z,101331.00
2023-04-04T01:43:56.175Z,101319.00
2023-04-04T01:46:23.622Z,101295.00
2023-04-04T01:48:50.524Z,101323.00
2023-04-04T01:51:18.223Z,101328.00
2023-04-04T01:53:45.127Z,101326.00
2023-04-04T01:56:11.964Z,101318.00
2023-04-04T01:58:38.818Z,101317.00
2023-04-04T02:01:05.811Z,101312.00
2023-04-04T02:03:33.164Z,101319.00
2023-04-04T02:06:00.239Z,101310.00
2023-04-04T02:08:27.423Z,101311.00
2023-04-04T02:10:56.979Z,101297.00
2023-04-04T02:13:24.103Z,101305.00
2023-04-04T02:15:53.709Z,101294.00
2023-04-04T02:18:20.650Z,101297.00
2023-04-04T02:20:47.483Z,101287.00
2023-04-04T02:23:14.308Z,101281.00
2023-04-04T02:25:41.148Z,101294.00
2023-04-04T02:28:07.995Z,101286.00
2023-04-04T02:30:34.800Z,101283.00
2023-04-04T02:33:01.689Z,101279.00
2023-04-04T02:35:28.556Z,101276.00
2023-04-04T02:37:55.432Z,101269.00
2023-04-04T02:40:22.397Z,101271.00
2023-04-04T02:42:49.207Z,101269.00
2023-04-04T02:45:16.486Z,101260.00
2023-04-04T02:47:50.217Z,101253.00
2023-04-04T02:50:17.402Z,101258.00
2023-04-04T02:52:44.314Z,101258.00
2023-04-04T02:55:11.670Z,101274.00
2023-04-04T02:57:38.555Z,101264.00
2023-04-04T03:00:07.006Z,101253.00
2023-04-04T03:02:34.116Z,101250.00
2023-04-04T03:05:01.256Z,101243.00
2023-04-04T03:07:28.142Z,101249.00
2023-04-04T03:09:54.950Z,101234.00
2023-04-04T03:12:21.933Z,101247.00
2023-04-04T03:14:48.830Z,101239.00
2023-04-04T03:17:15.959Z,101250.00
2023-04-04T03:19:42.798Z,101248.00
2023-04-04T03:22:09.604Z,101255.00
2023-04-04T03:24:37.576Z,101246.00
2023-04-04T03:27:05.415Z,101244.00
2023-04-04T03:29:32.847Z,101248.00
2023-04-04T03:31:59.714Z,101246.00
2023-04-04T03:34:27.192Z,101239.00
2023-04-04T03:36:54.335Z,101240.00
2023-04-04T03:39:21.246Z,101237.00
2023-04-04T03:41:48.512Z,101232.00
2023-04-04T03:44:15.567Z,101231.00
2023-04-04T03:46:42.516Z,101230.00
2023-04-04T03:49:09.341Z,101231.00
2023-04-04T03:51:36.278Z,101237.00
2023-04-04T03:54:03.138Z,101224.00
2023-04-04T03:56:32.547Z,101234.00
2023-04-04T03:58:59.934Z,101241.00
2023-04-04T04:01:27.046Z,101240.00
2023-04-04T04:03:53.931Z,101238.00
2023-04-04T04:06:20.950Z,101228.00
2023-04-04T04:08:48.246Z,101226.00
2023-04-04T04:11:15.100Z,101227.00
2023-04-04T04:13:42.124Z,101239.00
2023-04-04T04:16:09.095Z,101233.00
2023-04-04T04:18:35.927Z,101238.00
2023-04-04T04:21:04.073Z,101234.00
2023-04-04T04:23:31.798Z,101230.00
2023-04-04T04:25:58.816Z,101238.00
2023-04-04T04:28:33.462Z,101230.00
2023-04-04T04:31:09.868Z,101228.00
2023-04-04T04:33:36.880Z,101228.00
2023-04-04T04:36:05.810Z,101231.00
2023-04-04T04:38:33.392Z,101228.00
2023-04-04T04:41:01.982Z,101232.00
2023-04-04T04:43:28.931Z,101232.00
2023-04-04T04:45:55.794Z,101228.00
2023-04-04T04:48:22.774Z,101233.00
2023-04-04T04:50:49.732Z,101230.00
2023-04-04T04:53:16.778Z,101228.00
2023-04-04T04:55:43.779Z,101235.00
2023-04-04T04:58:11.192Z,101224.00
2023-04-04T05:00:39.028Z,101236.00
2023-04-04T05:03:08.845Z,101226.00
2023-04-04T05:05:36.161Z,101211.00
2023-04-04T05:08:04.265Z,101231.00
2023-04-04T05:10:31.795Z,101237.00
2023-04-04T05:12:58.692Z,101230.00
2023-04-04T05:15:31.546Z,101246.00
2023-04-04T05:17:59.196Z,101235.00
2023-04-04T05:20:26.139Z,101239.00
2023-04-04T05:22:53.079Z,101243.00
2023-04-04T05:25:20.020Z,101234.00
2023-04-04T05:27:49.932Z,101230.00
2023-04-04T05:30:17.089Z,101246.00
2023-04-04T05:32:47.082Z,101234.00
2023-04-04T05:35:13.992Z,101229.00
2023-04-04T05:37:41.178Z,101229.00
2023-04-04T05:40:09.001Z,101227.00
2023-04-04T05:42:35.830Z,101231.00
2023-04-04T05:45:03.706Z,101227.00
2023-04-04T05:47:30.540Z,101241.00
2023-04-04T05:49:58.048Z,101230.00
2023-04-04T05:52:25.424Z,101226.00
2023-04-04T05:54:52.334Z,101229.00
2023-04-04T05:57:19.150Z,101234.00
2023-04-04T05:59:45.957Z,101223.00
2023-04-04T06:02:13.433Z,101227.00
2023-04-04T06:04:41.030Z,101222.00
2023-04-04T06:07:07.962Z,101225.00
2023-04-04T06:09:36.273Z,101217.00
2023-04-04T06:12:06.609Z,101227.00
2023-04-04T06:14:33.448Z,101230.00
2023-04-04T06:17:00.501Z,101228.00
2023-04-04T06:19:27.456Z,101232.00
2023-04-04T06:21:54.352Z,101232.00
2023-04-04T06:24:21.206Z,101234.00
2023-04-04T06:26:52.757Z,101231.00
2023-04-04T06:29:19.653Z,101230.00
2023-04-04T06:31:46.634Z,101226.00
2023-04-04T06:34:13.559Z,101220.00
2023-04-04T06:36:40.367Z,101223.00
2023-04-04T06:39:07.785Z,101224.00
2023-04-04T06:41:34.636Z,101219.00
2023-04-04T06:44:01.568Z,101104.00
2023-04-04T06:46:30.990Z,101213.00
2023-04-04T06:48:57.833Z,101211.00
2023-04-04T06:51:25.367Z,101227.00
2023-04-04T06:53:52.534Z,101214.00
2023-04-04T06:56:19.457Z,101214.00
2023-04-04T06:58:46.353Z,101191.00
2023-04-04T07:01:13.284Z,101203.00
2023-04-04T07:03:40.235Z,101195.00
2023-04-04T07:06:07.174Z,101191.00
2023-04-04T07:08:36.902Z,101196.00
2023-04-04T07:11:05.290Z,101187.00
2023-04-04T07:13:32.175Z,101190.00
2023-04-04T07:15:59.018Z,101185.00
2023-04-04T07:18:26.001Z,101194.00
2023-04-04T07:20:52.805Z,101190.00
2023-04-04T07:23:19.658Z,101192.00
2023-04-04T07:25:47.668Z,101202.00
2023-04-04T07:28:14.605Z,101191.00
2023-04-04T07:30:41.807Z,101182.00
2023-04-04T07:33:09.047Z,101193.00
2023-04-04T07:35:36.424Z,101183.00
2023-04-04T07:38:04.257Z,101194.00
2023-04-04T07:40:31.860Z,101193.00
2023-04-04T07:42:58.769Z,101190.00
2023-04-04T07:45:25.696Z,101184.00
2023-04-04T07:47:52.580Z,101185.00
2023-04-04T07:50:19.709Z,101178.00
2023-04-04T07:52:55.894Z,101166.00
2023-04-04T07:55:25.297Z,101173.00
2023-04-04T07:57:53.552Z,101165.00
2023-04-04T08:00:22.186Z,101185.00
2023-04-04T08:02:54.270Z,101183.00
2023-04-04T08:05:21.631Z,101188.00
2023-04-04T08:07:48.612Z,101176.00
2023-04-04T08:10:17.702Z,101180.00
2023-04-04T08:12:45.252Z,101196.00
2023-04-04T08:15:12.336Z,101190.00
2023-04-04T08:17:39.957Z,101197.00
2023-04-04T08:20:07.793Z,101190.00
2023-04-04T08:22:34.699Z,101191.00
2023-04-04T08:25:01.708Z,101188.00
2023-04-04T08:27:28.700Z,101189.00
2023-04-04T08:29:55.556Z,101177.00
2023-04-04T08:32:23.728Z,101167.00
2023-04-04T08:34:51.171Z,101171.00
2023-04-04T08:37:18.417Z,101167.00
2023-04-04T08:39:45.412Z,101166.00
2023-04-04T08:42:16.936Z,101155.00
2023-04-04T08:44:47.773Z,101177.00
2023-04-04T08:47:16.606Z,101163.00
2023-04-04T08:49:47.842Z,101154.00
2023-04-04T08:52:19.610Z,101144.00
2023-04-04T08:54:47.965Z,101150.00
2023-04-04T08:57:15.089Z,101143.00
2023-04-04T08:59:42.670Z,101150.00
2023-04-04T09:02:09.582Z,101164.00
2023-04-04T09:04:37.721Z,101164.00
2023-04-04T09:07:07.083Z,101165.00
2023-04-04T09:09:35.227Z,101155.00
2023-04-04T09:12:03.504Z,101143.00
2023-04-04T09:14:31.913Z,101138.00
2023-04-04T09:16:58.997Z,101138.00
2023-04-04T09:19:26.586Z,101148.00
2023-04-04T09:21:53.626Z,101157.00
2023-04-04T09:24:20.621Z,101145.00
2023-04-04T09:26:53.718Z,101154.00
2023-04-04T09:29:22.942Z,101134.00
2023-04-04T09:31:51.018Z,101132.00
2023-04-04T09:34:20.420Z,101136.00
2023-04-04T09:36:48.226Z,101139.00
2023-04-04T09:39:20.138Z,101138.00
2023-04-04T09:41:47.618Z,101139.00
2023-04-04T09:44:14.700Z,101127.00
2023-04-04T09:46:41.869Z,101138.00
2023-04-04T09:49:19.652Z,101125.00
2023-04-04T09:51:52.820Z,101146.00
2023-04-04T09:54:29.441Z,101142.00
2023-04-04T09:56:57.367Z,101129.00
2023-04-04T09:59:24.959Z,101094.00
2023-04-04T10:01:55.098Z,101135.00
2023-04-04T10:04:24.578Z,101135.00
2023-04-04T10:06:55.785Z,101141.00
2023-04-04T10:09:23.580Z,101142.00
2023-04-04T10:11:50.884Z,101137.00
2023-04-04T10:14:17.831Z,101134.00
2023-04-04T10:16:47.589Z,101141.00
2023-04-04T10:19:18.707Z,101134.00
2023-04-04T10:21:47.959Z,101144.00
2023-04-04T10:24:14.880Z,101116.00
2023-04-04T10:26:42.115Z,101134.00
2023-04-04T10:29:09.122Z,101133.00
2023-04-04T10:31:44.759Z,101129.00
2023-04-04T10:34:17.476Z,101129.00
2023-04-04T10:36:58.262Z,101134.00
2023-04-04T10:39:37.992Z,101136.00
2023-04-04T10:42:07.811Z,101136.00
2023-04-04T10:44:39.609Z,101132.00
2023-04-04T10:47:26.169Z,101138.00
2023-04-04T10:49:53.636Z,101132.00
2023-04-04T10:52:24.688Z,101125.00
2023-04-04T10:55:00.453Z,101124.00
2023-04-04T10:57:28.740Z,101121.00
2023-04-04T11:00:20.320Z,101113.00
2023-04-04T11:02:59.712Z,101110.00
2023-04-04T11:05:49.220Z,101117.00
2023-04-04T11:08:24.929Z,101115.00
2023-04-04T11:10:55.082Z,101112.00
2023-04-04T11:13:35.782Z,101115.00
2023-04-04T11:16:10.250Z,101102.00
2023-04-04T11:18:42.522Z,101103.00
2023-04-04T11:21:14.336Z,101092.00
2023-04-04T11:23:59.845Z,101087.00
2023-04-04T11:26:27.625Z,101090.00
2023-04-04T11:29:04.065Z,101090.00
2023-04-04T11:31:43.088Z,101074.00
2023-04-04T11:34:15.357Z,101087.00
2023-04-04T11:36:43.836Z,101082.00
2023-04-04T11:39:20.964Z,101070.00
2023-04-04T11:42:08.884Z,101065.00
2023-04-04T11:45:04.959Z,101069.00
2023-04-04T11:47:32.031Z,101065.00
2023-04-04T11:50:08.442Z,101061.00
2023-04-04T11:52:35.571Z,101068.00
2023-04-04T11:55:02.588Z,101062.00
2023-04-04T11:57:29.596Z,101065.00
2023-04-04T11:59:57.691Z,101048.00
2023-04-04T12:02:32.181Z,101068.00
2023-04-04T12:04:59.656Z,101061.00
2023-04-04T12:07:29.120Z,101060.00
2023-04-04T12:09:57.741Z,101041.00
2023-04-04T12:12:26.206Z,101050.00
2023-04-04T12:15:00.203Z,101049.00
2023-04-04T12:17:34.794Z,101050.00
2023-04-04T12:20:02.173Z,101054.00
2023-04-04T12:22:37.953Z,101042.00
2023-04-04T12:25:06.215Z,101036.00
2023-04-04T12:27:34.285Z,101036.00
2023-04-04T12:30:03.002Z,101024.00
2023-04-04T12:32:30.821Z,101031.00
2023-04-04T12:35:02.865Z,101032.00
2023-04-04T12:37:30.177Z,101023.00
2023-04-04T12:39:57.975Z,101022.00
2023-04-04T12:42:26.262Z,101026.00
2023-04-04T12:44:54.689Z,101022.00
2023-04-04T12:47:26.147Z,101029.00
2023-04-04T12:49:55.022Z,101024.00
2023-04-04T12:52:27.688Z,101012.00
2023-04-04T12:55:06.970Z,101012.00
2023-04-04T12:57:36.908Z,101002.00
2023-04-04T13:00:07.791Z,101022.00
2023-04-04T13:02:37.431Z,101009.00
2023-04-04T13:05:07.395Z,101015.00
2023-04-04T13:07:44.595Z,101015.00
2023-04-04T13:10:16.227Z,101013.00
2023-04-04T13:13:03.576Z,101007.00
2023-04-04T13:15:54.422Z,100971.00
2023-04-04T13:18:26.283Z,101007.00
2023-04-04T13:20:55.429Z,101005.00
2023-04-04T13:23:23.190Z,100999.00
2023-04-04T13:25:52.843Z,100997.00
2023-04-04T13:28:19.658Z,101004.00
2023-04-04T13:30:49.160Z,101002.00
2023-04-04T13:33:20.103Z,100999.00
2023-04-04T13:35:47.471Z,101001.00
2023-04-04T13:38:16.209Z,101002.00
2023-04-04T13:40:43.159Z,101008.00
2023-04-04T13:43:14.817Z,101001.00
2023-04-04T13:45:43.475Z,101003.00
2023-04-04T13:48:14.230Z,100996.00
2023-04-04T13:50:44.793Z,100998.00
2023-04-04T13:53:11.787Z,100996.00
2023-04-04T13:55:43.965Z,100999.00
2023-04-04T13:58:19.926Z,100990.00
2023-04-04T14:00:51.032Z,100986.00
2023-04-04T14:03:18.298Z,100983.00
2023-04-04T14:05:45.211Z,101000.00
2023-04-04T14:08:12.115Z,100996.00
2023-04-04T14:10:38.993Z,100990.00
2023-04-04T14:13:05.910Z,100987.00
2023-04-04T14:15:33.318Z,100995.00
2023-04-04T14:18:00.275Z,100989.00
2023-04-04T14:20:27.174Z,100977.00
2023-04-04T14:22:54.062Z,100991.00
2023-04-04T14:25:21.088Z,100986.00
2023-04-04T14:27:47.971Z,100996.00
2023-04-04T14:30:16.543Z,100997.00
2023-04-04T14:32:43.636Z,100994.00
2023-04-04T14:35:10.511Z,100998.00
2023-04-04T14:37:37.618Z,101008.00
2023-04-04T14:40:06.247Z,100984.00
2023-04-04T14:42:33.164Z,101013.00
2023-04-04T14:45:02.380Z,101001.00
2023-04-04T14:47:29.367Z,101015.00
2023-04-04T14:49:56.335Z,101003.00
2023-04-04T14:52:23.195Z,101002.00
2023-04-04T14:54:50.050Z,100999.00
2023-04-04T14:57:17.694Z,101008.00
2023-04-04T14:59:44.552Z,101008.00
2023-04-04T15:02:11.479Z,101013.00
2023-04-04T15:04:38.500Z,101009.00
2023-04-04T15:07:05.615Z,101011.00
2023-04-04T15:09:34.854Z,101006.00
2023-04-04T15:12:01.880Z,101016.00
2023-04-04T15:14:28.746Z,101016.00
2023-04-04T15:16:55.735Z,101004.00
2023-04-04T15:19:22.695Z,101003.00
2023-04-04T15:21:49.601Z,101009.00
2023-04-04T15:24:16.521Z,101016.00
2023-04-04T15:26:43.774Z,101000.00
2023-04-04T15:29:10.796Z,101014.00
2023-04-04T15:31:38.203Z,101018.00
2023-04-04T15:34:05.125Z,101009.00
2023-04-04T15:36:34.088Z,101001.00
2023-04-04T15:39:01.139Z,101006.00
2023-04-04T15:41:29.083Z,101005.00
2023-04-04T15:43:56.063Z,101006.00
2023-04-04T15:46:22.981Z,100994.00
2023-04-04T15:48:52.023Z,100999.00
2023-04-04T15:51:21.323Z,101005.00
2023-04-04T15:53:48.419Z,101000.00
2023-04-04T15:56:16.043Z,101006.00
2023-04-04T15:58:42.915Z,101001.00
2023-04-04T16:01:09.917Z,100999.00
2023-04-04T16:03:36.858Z,101003.00
2023-04-04T16:06:06.471Z,101010.00
2023-04-04T16:08:33.466Z,101002.00
2023-04-04T16:11:02.554Z,100998.00
2023-04-04T16:13:29.783Z,101007.00
2023-04-04T16:15:56.783Z,100993.00
2023-04-04T16:18:23.817Z,101010.00
2023-04-04T16:20:50.876Z,101015.00
2023-04-04T16:23:17.984Z,101021.00
2023-04-04T16:25:45.069Z,101021.00
2023-04-04T16:28:11.970Z,101009.00
2023-04-04T16:30:39.271Z,101012.00
2023-04-04T16:33:06.844Z,101016.00
2023-04-04T16:35:34.629Z,101016.00
2023-04-04T16:38:04.574Z,101015.00
2023-04-04T16:40:31.528Z,101007.00
2023-04-04T16:42:58.515Z,101012.00
2023-04-04T16:45:25.450Z,101015.00
2023-04-04T16:47:52.434Z,101009.00
2023-04-04T16:50:19.429Z,101013.00
2023-04-04T16:52:46.330Z,101008.00
2023-04-04T16:55:13.191Z,101009.00
2023-04-04T16:57:41.146Z,101003.00
2023-04-04T17:00:10.111Z,100988.00
2023-04-04T17:02:45.032Z,101005.00
2023-04-04T17:05:14.545Z,101009.00
2023-04-04T17:07:42.022Z,101015.00
2023-04-04T17:10:10.400Z,101008.00
2023-04-04T17:12:37.871Z,101008.00
2023-04-04T17:15:08.880Z,101009.00
2023-04-04T17:17:35.913Z,101003.00
2023-04-04T17:20:03.564Z,101010.00
2023-04-04T17:22:32.049Z,101014.00
2023-04-04T17:25:00.101Z,101007.00
2023-04-04T17:27:26.984Z,101010.00
2023-04-04T17:29:53.905Z,101007.00
2023-04-04T17:32:20.860Z,101004.00
2023-04-04T17:34:47.708Z,101004.00
2023-04-04T17:37:14.619Z,101007.00
2023-04-04T17:39:44.177Z,101010.00
2023-04-04T17:42:12.308Z,101006.00
2023-04-04T17:44:39.197Z,101013.00
2023-04-04T17:47:06.715Z,101009.00
2023-04-04T17:49:33.556Z,101009.00
2023-04-04T17:52:00.904Z,101006.00
2023-04-04T17:54:29.610Z,101014.00
2023-04-04T17:56:57.200Z,101005.00
2023-04-04T17:59:24.328Z,101017.00
2023-04-04T18:01:51.464Z,101016.00
2023-04-04T18:04:19.393Z,101017.00
2023-04-04T18:06:46.271Z,101009.00
2023-04-04T18:09:13.291Z,101003.00
2023-04-04T18:11:40.299Z,101013.00
2023-04-04T18:14:07.321Z,101012.00
2023-04-04T18:16:39.680Z,101008.00
2023-04-04T18:19:08.895Z,101008.00
2023-04-04T18:21:35.774Z,101013.00
2023-04-04T18:24:02.804Z,101009.00
2023-04-04T18:26:29.725Z,101010.00
2023-04-04T18:28:56.590Z,101012.00
2023-04-04T18:31:23.507Z,101010.00
2023-04-04T18:33:50.573Z,101012.00
2023-04-04T18:36:17.557Z,100998.00
2023-04-04T18:38:46.880Z,101018.00
2023-04-04T18:41:18.245Z,101007.00
2023-04-04T18:43:46.776Z,101004.00
2023-04-04T18:46:13.680Z,101010.00
2023-04-04T18:48:41.468Z,101010.00
2023-04-04T18:51:09.083Z,101003.00
2023-04-04T18:53:36.273Z,101009.00
2023-04-04T18:56:03.186Z,100995.00
2023-04-04T18:58:32.165Z,100961.00
2023-04-04T19:00:59.570Z,100997.00
2023-04-04T19:03:26.737Z,101005.00
2023-04-04T19:05:55.572Z,100999.00
2023-04-04T19:08:24.156Z,100990.00
2023-04-04T19:10:51.385Z,101001.00
2023-04-04T19:13:18.386Z,100994.00
2023-04-04T19:15:45.680Z,100984.00
2023-04-04T19:18:12.782Z,100996.00
2023-04-04T19:20:42.089Z,100986.00
2023-04-04T19:23:09.305Z,100982.00
2023-04-04T19:25:36.333Z,100989.00
2023-04-04T19:28:03.574Z,100973.00
2023-04-04T19:30:49.486Z,100985.00
2023-04-04T19:33:23.320Z,100969.00
2023-04-04T19:36:02.329Z,100986.00
2023-04-04T19:38:33.203Z,100974.00
2023-04-04T19:41:16.886Z,100992.00
2023-04-04T19:43:47.952Z,100991.00
2023-04-04T19:46:23.999Z,100989.00
2023-04-04T19:48:54.738Z,100989.00
2023-04-04T19:51:21.517Z,101004.00
2023-04-04T19:53:54.547Z,100992.00
2023-04-04T19:56:24.313Z,100991.00
2023-04-04T19:58:54.268Z,100998.00
2023-04-04T20:01:25.065Z,100992.00
2023-04-04T20:03:51.965Z,100989.00
2023-04-04T20:06:29.002Z,100989.00
2023-04-04T20:09:12.851Z,101000.00
2023-04-04T20:11:40.587Z,100993.00
2023-04-04T20:14:10.116Z,100984.00
2023-04-04T20:16:37.511Z,100988.00
2023-04-04T20:19:08.779Z,100975.00
2023-04-04T20:21:36.015Z,100980.00
2023-04-04T20:24:08.420Z,100985.00
2023-04-04T20:26:38.446Z,100976.00
2023-04-04T20:29:13.724Z,100977.00
2023-04-04T20:31:53.624Z,100979.00
2023-04-04T20:34:46.224Z,100971.00
2023-04-04T20:37:22.819Z,100975.00
2023-04-04T20:40:12.720Z,100968.00
2023-04-04T20:42:40.717Z,100930.00
2023-04-04T20:45:11.187Z,100969.00
2023-04-04T20:47:50.042Z,100965.00
2023-04-04T20:50:17.003Z,100978.00
2023-04-04T20:53:17.155Z,100974.00
2023-04-04T20:55:44.348Z,100975.00
2023-04-04T20:58:30.220Z,100967.00
2023-04-04T21:01:01.402Z,100971.00
2023-04-04T21:03:37.812Z,100969.00
2023-04-04T21:06:16.666Z,100967.00
2023-04-04T21:08:48.603Z,100962.00
2023-04-04T21:11:29.458Z,100974.00
2023-04-04T21:13:57.264Z,100969.00
2023-04-04T21:16:27.477Z,100961.00
2023-04-04T21:18:59.678Z,100954.00
2023-04-04T21:21:27.212Z,100953.00
2023-04-04T21:23:57.054Z,100951.00
2023-04-04T21:26:35.132Z,100953.00
2023-04-04T21:29:18.333Z,100957.00
2023-04-04T21:31:46.720Z,100948.00
2023-04-04T21:34:21.139Z,100952.00
2023-04-04T21:36:51.210Z,100960.00
2023-04-04T21:39:24.702Z,100960.00
2023-04-04T21:41:59.688Z,100950.00
2023-04-04T21:44:26.636Z,100960.00
2023-04-04T21:46:57.017Z,100954.00
2023-04-04T21:49:25.199Z,100959.00
2023-04-04T21:51:52.201Z,100957.00
2023-04-04T21:54:19.394Z,100957.00
2023-04-04T21:56:46.753Z,100969.00
2023-04-04T21:59:13.698Z,100959.00
2023-04-04T22:01:40.950Z,100960.00
2023-04-04T22:04:10.327Z,100954.00
2023-04-04T22:06:37.256Z,100958.00
2023-04-04T22:09:04.399Z,100950.00
2023-04-04T22:11:31.471Z,100963.00
2023-04-04T22:14:04.746Z,100950.00
2023-04-04T22:16:36.747Z,100947.00
2023-04-04T22:19:04.498Z,100954.00
2023-04-04T22:21:36.303Z,100953.00
2023-04-04T22:24:05.901Z,100938.00
2023-04-04T22:26:33.719Z,100959.00
2023-04-04T22:29:04.239Z,100941.00
2023-04-04T22:31:34.531Z,100945.00
2023-04-04T22:34:03.160Z,100952.00
2023-04-04T22:36:30.696Z,100953.00
2023-04-04T22:38:58.242Z,100945.00
2023-04-04T22:41:30.610Z,100942.00
2023-04-04T22:43:58.354Z,100930.00
2023-04-04T22:46:29.456Z,100929.00
2023-04-04T22:49:05.425Z,100934.00
2023-04-04T22:51:45.074Z,100928.00
2023-04-04T22:54:14.907Z,100924.00
2023-04-04T22:56:41.899Z,100934.00
2023-04-04T22:59:08.922Z,100936.00
2023-04-04T23:01:36.036Z,100925.00
2023-04-04T23:04:02.968Z,100926.00
2023-04-04T23:06:29.828Z,100925.00
2023-04-04T23:08:56.733Z,100922.00
2023-04-04T23:11:23.765Z,100921.00
2023-04-04T23:13:51.961Z,100920.00
2023-04-04T23:16:18.865Z,100919.00
2023-04-04T23:18:45.897Z,100921.00
2023-04-04T23:21:12.712Z,100914.00
2023-04-04T23:23:39.549Z,100913.00
2023-04-04T23:26:06.403Z,100907.00
2023-04-04T23:28:33.285Z,100906.00
2023-04-04T23:31:00.509Z,100906.00
2023-04-04T23:33:27.462Z,100903.00
2023-04-04T23:35:54.301Z,100904.00
2023-04-04T23:38:21.142Z,100902.00
2023-04-04T23:40:48.032Z,100904.00
2023-04-04T23:43:14.849Z,100905.00
2023-04-04T23:45:41.809Z,100898.00
2023-04-04T23:48:09.868Z,100891.00
2023-04-04T23:50:37.992Z,100888.00
2023-04-04T23:53:04.875Z,100892.00
2023-04-04T23:55:32.021Z,100899.00
2023-04-04T23:58:02.449Z,100894.00
